Hunt, Illinois
Current Conditions -  °F | °C
As of 1:35 AM on Wednesday 26 Nov 2014 (Local Time) from KRSV Reporting Station
Clear Clear  
Wind Chill: 23°   Ceiling: Unl
Heat Index: 23°   Visibility: 10mi
Dew Point: 22°   Wind: 3mph
Humidity: 96%   Direction: 100°E
Pressure: 30.18"   Gusts: NA
Location:  38.9751°N, 88.0102°W
Report Text: KRSV 260735Z AUTO 10003KT 10SM CLR M05/M05 A3018 RMK AO2 T10501055
Loading
Personal Weather Stations






























Interactive Weather Map New forecast layout! Learn more

10-Day Weather Forecast

Advertisements
Track Severe Weather on mobile